Flight Track Log - Related Links

Times and Time Zones

All times are in EDT time to prevent confusion due to time zone crossing. See the RPA3436 flight status page for this flight to view local times or setup timezone preferences in your user account.

Time Position Orientation Groundspeed Altitude Reporting Facility
EDT Latitude Longitude Course Direction KTS MPH feet Rate Location/Type
Fri 10:15:17 AM 38.8833 -77.0500 83° East 160 184 1,500  Level Potomac TRACON
Fri 10:16:12 AM 38.9167 -77.1000 311° West 221 254 3,000 2,557 Climbing Potomac TRACON
Fri 10:17:00 AM 39.1019 -76.8432 67° East  Level Estimated
Fri 10:18:00 AM 39.1852 -76.7781 61° Northeast  Level Estimated
Fri 10:18:20 AM 39.0414 -77.1122 356° North 212 244 9,300  Level Washington Center
Fri 10:19:00 AM 39.2684 -76.7128 90° East  Level Estimated
Fri 10:19:21 AM 39.0592 -77.0083 78° East 221 254 11,100  Level Washington Center
Fri 10:20:00 AM 39.3516 -76.6473 83° East  Level Estimated
Fri 10:20:23 AM 39.0731 -76.8911 81° East 250 288 13,200  Level Washington Center
Fri 10:21:20 AM 39.0889 -76.7628 81° East 312 359 14,300 1,231 Climbing Washington Center
Fri 10:22:20 AM 39.1006 -76.6508 82° East 347 399 15,600 1,537 Climbing Washington Center
Fri 10:23:21 AM 39.1206 -76.4825 81° East 388 447 17,400 1,475 Climbing Washington Center
Fri 10:24:22 AM 39.1383 -76.3356 81° East 405 466 18,600 1,210 Climbing Washington Center
Fri 10:25:20 AM 39.1494 -76.2178 83° East 410 472 19,800 1,160 Climbing Washington Center
Fri 10:26:21 AM 39.1731 -76.0494 80° East 415 478 20,900 1,091 Climbing Washington Center
Fri 10:27:21 AM 39.2381 -75.9267 56° Northeast 415 478 22,000 1,289 Climbing Washington Center
Fri 10:28:22 AM 39.3175 -75.8117 48° Northeast 412 474 23,500 1,289 Climbing Washington Center
Fri 10:29:22 AM 39.3967 -75.6908 50° Northeast 422 486 24,600 1,119 Climbing Washington Center
Fri 10:30:20 AM 39.4781 -75.5756 48° Northeast 428 493 25,700 929 Climbing Washington Center
Fri 10:31:57 AM 39.6150 -75.3764 48° Northeast 455 524 27,000 497 Climbing New York Center
Fri 10:32:57 AM 39.6947 -75.2575 49° Northeast 455 524 27,000  Level New York Center
Fri 10:33:57 AM 39.7808 -75.1281 49° Northeast 455 524 27,000  Level New York Center
Fri 10:34:57 AM 39.8622 -75.0086 48° Northeast 455 524 27,000  Level New York Center
Fri 10:35:57 AM 39.9461 -74.8811 49° Northeast 455 524 27,000  Level New York Center
Fri 10:36:57 AM 40.0422 -74.7511 46° Northeast 455 524 27,000  Level New York Center
Fri 10:37:57 AM 40.1236 -74.6256 50° Northeast 455 524 27,000  Level New York Center
Fri 10:38:57 AM 40.2047 -74.5022 49° Northeast 450 518 27,000  Level New York Center
Fri 10:39:57 AM 40.2978 -74.3903 43° Northeast 450 518 27,000  Level New York Center
Fri 10:41:58 AM 40.4883 -74.1836 39° Northeast 439 505 27,000  Level Boston Center
Fri 10:42:56 AM 40.5858 -74.0825 38° Northeast 439 505 27,000 -655 Level Boston Center
Fri 10:43:57 AM 40.6831 -73.9808 38° Northeast 444 511 25,700 -1,475 Descending Boston Center
Fri 10:44:58 AM 40.7781 -73.8789 39° Northeast 444 511 24,000 -864 Descending Boston Center
Fri 10:45:55 AM 40.8669 -73.7739 42° Northeast 434 499 24,000 -458 Level Boston Center
Fri 10:46:56 AM 40.9536 -73.6603 45° Northeast 434 499 23,100 -496 Descending Boston Center
Fri 10:47:56 AM 41.0339 -73.5711 40° Northeast 426 490 23,000 -397 Descending Boston Center
Fri 10:48:57 AM 41.1367 -73.4956 29° Northeast 421 484 22,300 -1,091 Descending Boston Center
Fri 10:49:57 AM 41.2375 -73.4228 28° Northeast 416 479 20,800 -1,438 Descending Boston Center
Fri 10:50:58 AM 41.3436 -73.4300 357° North 376 433 19,400 -1,388 Descending Boston Center
Fri 10:51:58 AM 41.4539 -73.4483 353° North 361 415 18,000 -712 Descending Boston Center
Fri 10:52:56 AM 41.5475 -73.4608 354° North 372 428 18,000  Level Boston Center
Fri 10:53:56 AM 41.6578 -73.4736 355° North 372 428 18,000 -100 Level Boston Center
Fri 10:54:56 AM 41.7536 -73.4836 356° North 365 420 17,800 -1,289 Descending Boston Center
Fri 10:55:57 AM 41.8639 -73.4967 355° North 366 421 15,400 -2,083 Descending Boston Center
Fri 10:56:57 AM 41.9536 -73.5092 354° North 366 421 13,600 -1,857 Descending Boston Center
Fri 10:57:21 AM 42.0014 -73.5128 357° North 354 407 12,800 -1,869 Descending Boston Center
Fri 10:57:58 AM 42.0597 -73.5194 355° North 353 406 11,700 -1,953 Descending Boston Center
Fri 10:58:04 AM 42.0722 -73.5253 341° North 339 390 11,400 -636 Descending Boston Center
Fri 10:59:04 AM 42.1661 -73.5156 North 334 384 11,000 -268 Descending Boston Center
Fri 10:59:56 AM 42.2350 -73.5028 North 336 387 10,900 -448 Descending Boston Center
Fri 11:00:11 AM 42.2578 -73.5200 331° Northwest 296 341 10,500 -1,475 Descending Boston Center
Fri 11:00:57 AM 42.3033 -73.5517 333° Northwest 290 334 9,400 -1,636 Descending Boston Center
Fri 11:01:06 AM 42.3156 -73.5744 306° West 265 305 9,000 -2,237 Descending Boston Center
Fri 11:01:56 AM 42.3672 -73.6231 325° Northwest 273 314 7,200 -2,136 Descending Boston Center
Fri 11:02:05 AM 42.3775 -73.6317 328° Northwest 269 310 6,900 -1,574 Descending Boston Center
Fri 11:02:57 AM 42.4228 -73.6747 325° Northwest 273 314 5,600 -1,574 Descending Boston Center
Fri 11:03:06 AM 42.4372 -73.6892 324° Northwest 263 303 5,300 -1,500 Descending Boston Center
Fri 11:03:57 AM 42.4847 -73.7322 326° Northwest 256 295 4,100 -1,400 Descending Boston Center
Fri 11:04:06 AM 42.4931 -73.7408 323° Northwest 246 283 3,900 -943 Descending Boston Center
Fri 11:05:07 AM 42.5444 -73.7872 326° Northwest 220 253 3,000 -696 Descending Boston Center
Fri 11:05:58 AM 42.5861 -73.7994 348° North 199 229 2,600 -444 Descending Boston Center
Fri 11:06:01 AM 42.5881 -73.8022 314° West 168 193 2,600  Level Boston Center
Fri 11:06:56 AM 42.6400 -73.8344 335° Northwest 190 219 2,600 -290 Level Boston Center
Fri 11:07:03 AM 42.6361 -73.8003 99° East 162 186 2,300 -1,075 Descending Boston Center
Fri 11:08:03 AM 42.6819 -73.8042 356° North 155 178 1,400 -787 Descending Boston Center
Fri 11:09:05 AM 42.7194 -73.8078 356° North 126 145 700 -677 Descending Boston Center

Login

Don't have an account? Register now (free) for customized features, flight alerts, and more!